sensor_id;sensor_type;location;lat;lon;timestamp;P1;durP1;ratioP1;P2;durP2;ratioP2
20154;SDS011;10238;49.556;10.956;2022-12-07T00:02:22;5.35;;;4.82;;
20154;SDS011;10238;49.556;10.956;2022-12-07T00:05:10;7.97;;;4.90;;
20154;SDS011;10238;49.556;10.956;2022-12-07T00:08:00;6.20;;;4.82;;
20154;SDS011;10238;49.556;10.956;2022-12-07T00:10:48;7.00;;;5.53;;
20154;SDS011;10238;49.556;10.956;2022-12-07T00:13:37;7.32;;;5.20;;
20154;SDS011;10238;49.556;10.956;2022-12-07T00:16:29;6.10;;;5.43;;
20154;SDS011;10238;49.556;10.956;2022-12-07T00:19:20;7.25;;;5.50;;
20154;SDS011;10238;49.556;10.956;2022-12-07T00:22:08;7.20;;;5.32;;
20154;SDS011;10238;49.556;10.956;2022-12-07T00:24:56;5.70;;;5.03;;
20154;SDS011;10238;49.556;10.956;2022-12-07T00:27:45;6.07;;;5.18;;
20154;SDS011;10238;49.556;10.956;2022-12-07T00:30:33;7.38;;;5.68;;
20154;SDS011;10238;49.556;10.956;2022-12-07T00:33:21;6.97;;;5.07;;
20154;SDS011;10238;49.556;10.956;2022-12-07T00:36:12;7.10;;;5.30;;
20154;SDS011;10238;49.556;10.956;2022-12-07T00:39:06;5.93;;;5.03;;
20154;SDS011;10238;49.556;10.956;2022-12-07T00:41:54;6.68;;;5.10;;
20154;SDS011;10238;49.556;10.956;2022-12-07T00:44:42;7.15;;;4.95;;
20154;SDS011;10238;49.556;10.956;2022-12-07T00:47:30;6.78;;;5.47;;
20154;SDS011;10238;49.556;10.956;2022-12-07T00:50:18;6.13;;;5.18;;
20154;SDS011;10238;49.556;10.956;2022-12-07T00:53:07;7.18;;;5.32;;
20154;SDS011;10238;49.556;10.956;2022-12-07T00:55:55;6.50;;;5.15;;
20154;SDS011;10238;49.556;10.956;2022-12-07T00:58:43;8.05;;;5.65;;
20154;SDS011;10238;49.556;10.956;2022-12-07T01:01:36;6.47;;;5.68;;
20154;SDS011;10238;49.556;10.956;2022-12-07T01:04:25;6.88;;;5.35;;
20154;SDS011;10238;49.556;10.956;2022-12-07T01:07:15;9.35;;;5.50;;
20154;SDS011;10238;49.556;10.956;2022-12-07T01:10:06;8.05;;;5.90;;
20154;SDS011;10238;49.556;10.956;2022-12-07T01:12:54;8.55;;;5.53;;
20154;SDS011;10238;49.556;10.956;2022-12-07T01:15:43;8.38;;;5.97;;
20154;SDS011;10238;49.556;10.956;2022-12-07T01:18:33;7.93;;;5.95;;
20154;SDS011;10238;49.556;10.956;2022-12-07T01:21:23;7.90;;;5.88;;
20154;SDS011;10238;49.556;10.956;2022-12-07T01:24:12;10.90;;;6.78;;
20154;SDS011;10238;49.556;10.956;2022-12-07T01:27:01;7.80;;;5.35;;
20154;SDS011;10238;49.556;10.956;2022-12-07T01:29:50;9.60;;;5.78;;
20154;SDS011;10238;49.556;10.956;2022-12-07T01:32:38;8.32;;;5.97;;
20154;SDS011;10238;49.556;10.956;2022-12-07T01:35:27;9.80;;;6.15;;
20154;SDS011;10238;49.556;10.956;2022-12-07T01:38:15;7.45;;;5.68;;
20154;SDS011;10238;49.556;10.956;2022-12-07T01:41:03;9.05;;;6.15;;
20154;SDS011;10238;49.556;10.956;2022-12-07T01:44:10;8.65;;;5.95;;
20154;SDS011;10238;49.556;10.956;2022-12-07T01:47:03;8.48;;;5.95;;
20154;SDS011;10238;49.556;10.956;2022-12-07T01:49:54;8.93;;;6.22;;
20154;SDS011;10238;49.556;10.956;2022-12-07T01:52:42;8.68;;;6.10;;
20154;SDS011;10238;49.556;10.956;2022-12-07T01:55:37;8.20;;;5.85;;
20154;SDS011;10238;49.556;10.956;2022-12-07T01:58:28;9.33;;;6.40;;
20154;SDS011;10238;49.556;10.956;2022-12-07T02:01:18;8.20;;;6.13;;
20154;SDS011;10238;49.556;10.956;2022-12-07T02:04:06;8.05;;;6.13;;
20154;SDS011;10238;49.556;10.956;2022-12-07T02:06:54;8.20;;;6.03;;
20154;SDS011;10238;49.556;10.956;2022-12-07T02:09:44;9.27;;;7.03;;
20154;SDS011;10238;49.556;10.956;2022-12-07T02:12:32;11.18;;;6.32;;
20154;SDS011;10238;49.556;10.956;2022-12-07T02:15:23;11.55;;;6.50;;
20154;SDS011;10238;49.556;10.956;2022-12-07T02:18:20;10.48;;;6.38;;
20154;SDS011;10238;49.556;10.956;2022-12-07T02:21:16;8.13;;;5.97;;
20154;SDS011;10238;49.556;10.956;2022-12-07T02:24:15;8.35;;;6.10;;
20154;SDS011;10238;49.556;10.956;2022-12-07T02:27:24;9.68;;;6.53;;
20154;SDS011;10238;49.556;10.956;2022-12-07T02:30:26;10.93;;;7.25;;
20154;SDS011;10238;49.556;10.956;2022-12-07T02:33:19;9.57;;;6.18;;
20154;SDS011;10238;49.556;10.956;2022-12-07T02:36:13;10.70;;;6.22;;
20154;SDS011;10238;49.556;10.956;2022-12-07T02:39:08;12.70;;;7.07;;
20154;SDS011;10238;49.556;10.956;2022-12-07T02:42:06;10.10;;;6.72;;
20154;SDS011;10238;49.556;10.956;2022-12-07T02:45:00;10.98;;;7.63;;
20154;SDS011;10238;49.556;10.956;2022-12-07T02:47:51;11.10;;;6.82;;
20154;SDS011;10238;49.556;10.956;2022-12-07T02:50:44;9.57;;;6.65;;
20154;SDS011;10238;49.556;10.956;2022-12-07T02:53:36;9.75;;;6.95;;
20154;SDS011;10238;49.556;10.956;2022-12-07T02:56:26;11.40;;;7.13;;
20154;SDS011;10238;49.556;10.956;2022-12-07T02:59:23;10.57;;;6.78;;
20154;SDS011;10238;49.556;10.956;2022-12-07T03:02:21;10.55;;;7.03;;
20154;SDS011;10238;49.556;10.956;2022-12-07T03:05:31;9.50;;;6.13;;
20154;SDS011;10238;49.556;10.956;2022-12-07T03:08:38;9.38;;;6.57;;
20154;SDS011;10238;49.556;10.956;2022-12-07T03:11:42;12.90;;;8.00;;
20154;SDS011;10238;49.556;10.956;2022-12-07T03:14:38;11.15;;;6.90;;
20154;SDS011;10238;49.556;10.956;2022-12-07T03:17:33;11.27;;;7.35;;
20154;SDS011;10238;49.556;10.956;2022-12-07T03:20:26;11.10;;;7.15;;
20154;SDS011;10238;49.556;10.956;2022-12-07T03:23:17;12.18;;;7.88;;
20154;SDS011;10238;49.556;10.956;2022-12-07T03:26:08;10.13;;;7.28;;
20154;SDS011;10238;49.556;10.956;2022-12-07T03:29:01;10.70;;;7.00;;
20154;SDS011;10238;49.556;10.956;2022-12-07T03:31:58;12.43;;;7.38;;
20154;SDS011;10238;49.556;10.956;2022-12-07T03:34:53;12.10;;;7.72;;
20154;SDS011;10238;49.556;10.956;2022-12-07T03:37:46;14.25;;;7.57;;
20154;SDS011;10238;49.556;10.956;2022-12-07T03:40:40;10.80;;;7.10;;
20154;SDS011;10238;49.556;10.956;2022-12-07T03:43:35;10.88;;;7.50;;
20154;SDS011;10238;49.556;10.956;2022-12-07T03:46:27;14.52;;;7.80;;
20154;SDS011;10238;49.556;10.956;2022-12-07T03:49:23;11.43;;;7.50;;
20154;SDS011;10238;49.556;10.956;2022-12-07T03:52:18;11.43;;;6.97;;
20154;SDS011;10238;49.556;10.956;2022-12-07T03:55:13;10.43;;;6.85;;
20154;SDS011;10238;49.556;10.956;2022-12-07T03:58:08;10.68;;;7.28;;
20154;SDS011;10238;49.556;10.956;2022-12-07T04:00:59;9.05;;;6.63;;
20154;SDS011;10238;49.556;10.956;2022-12-07T04:03:47;10.73;;;7.13;;
20154;SDS011;10238;49.556;10.956;2022-12-07T04:06:35;11.10;;;6.72;;
20154;SDS011;10238;49.556;10.956;2022-12-07T04:09:23;11.57;;;6.90;;
20154;SDS011;10238;49.556;10.956;2022-12-07T04:12:11;12.80;;;7.10;;
20154;SDS011;10238;49.556;10.956;2022-12-07T04:15:00;11.50;;;7.28;;
20154;SDS011;10238;49.556;10.956;2022-12-07T04:17:49;10.68;;;6.65;;
20154;SDS011;10238;49.556;10.956;2022-12-07T04:20:37;9.88;;;7.05;;
20154;SDS011;10238;49.556;10.956;2022-12-07T04:23:25;15.27;;;8.32;;
20154;SDS011;10238;49.556;10.956;2022-12-07T04:26:13;12.52;;;7.63;;
20154;SDS011;10238;49.556;10.956;2022-12-07T04:29:01;11.45;;;7.50;;
20154;SDS011;10238;49.556;10.956;2022-12-07T04:31:53;11.05;;;7.10;;
20154;SDS011;10238;49.556;10.956;2022-12-07T04:34:42;10.93;;;7.03;;
20154;SDS011;10238;49.556;10.956;2022-12-07T04:37:30;13.52;;;7.47;;
20154;SDS011;10238;49.556;10.956;2022-12-07T04:40:18;12.32;;;7.78;;
20154;SDS011;10238;49.556;10.956;2022-12-07T04:43:06;17.98;;;10.10;;
20154;SDS011;10238;49.556;10.956;2022-12-07T04:45:54;19.30;;;9.13;;
20154;SDS011;10238;49.556;10.956;2022-12-07T04:48:43;14.45;;;7.90;;
20154;SDS011;10238;49.556;10.956;2022-12-07T04:51:31;12.60;;;7.32;;
20154;SDS011;10238;49.556;10.956;2022-12-07T04:54:20;11.50;;;7.22;;
20154;SDS011;10238;49.556;10.956;2022-12-07T04:57:07;16.20;;;9.02;;
20154;SDS011;10238;49.556;10.956;2022-12-07T04:59:56;16.40;;;9.00;;
20154;SDS011;10238;49.556;10.956;2022-12-07T05:02:45;12.10;;;7.78;;
20154;SDS011;10238;49.556;10.956;2022-12-07T05:05:35;15.88;;;7.97;;
20154;SDS011;10238;49.556;10.956;2022-12-07T05:08:26;13.00;;;8.02;;
20154;SDS011;10238;49.556;10.956;2022-12-07T05:11:14;13.85;;;8.68;;
20154;SDS011;10238;49.556;10.956;2022-12-07T05:14:17;14.27;;;8.30;;
20154;SDS011;10238;49.556;10.956;2022-12-07T05:17:06;14.63;;;8.95;;
20154;SDS011;10238;49.556;10.956;2022-12-07T05:19:55;12.90;;;7.38;;
20154;SDS011;10238;49.556;10.956;2022-12-07T05:22:44;13.93;;;8.48;;
20154;SDS011;10238;49.556;10.956;2022-12-07T05:25:33;13.45;;;8.23;;
20154;SDS011;10238;49.556;10.956;2022-12-07T05:28:20;18.73;;;10.30;;
20154;SDS011;10238;49.556;10.956;2022-12-07T05:31:08;12.63;;;7.90;;
20154;SDS011;10238;49.556;10.956;2022-12-07T05:33:56;14.82;;;8.90;;
20154;SDS011;10238;49.556;10.956;2022-12-07T05:36:44;12.95;;;7.82;;
20154;SDS011;10238;49.556;10.956;2022-12-07T05:39:34;13.77;;;7.97;;
20154;SDS011;10238;49.556;10.956;2022-12-07T05:42:23;12.52;;;7.45;;
20154;SDS011;10238;49.556;10.956;2022-12-07T05:45:12;14.43;;;7.57;;
20154;SDS011;10238;49.556;10.956;2022-12-07T05:48:00;11.68;;;7.45;;
20154;SDS011;10238;49.556;10.956;2022-12-07T05:50:49;16.50;;;9.55;;
20154;SDS011;10238;49.556;10.956;2022-12-07T05:53:37;16.95;;;8.48;;
20154;SDS011;10238;49.556;10.956;2022-12-07T05:56:28;13.57;;;8.55;;
20154;SDS011;10238;49.556;10.956;2022-12-07T05:59:16;16.88;;;8.20;;
20154;SDS011;10238;49.556;10.956;2022-12-07T06:02:11;13.02;;;8.02;;
20154;SDS011;10238;49.556;10.956;2022-12-07T06:05:01;16.00;;;9.52;;
20154;SDS011;10238;49.556;10.956;2022-12-07T06:07:49;18.80;;;9.98;;
20154;SDS011;10238;49.556;10.956;2022-12-07T06:10:37;12.95;;;8.02;;
20154;SDS011;10238;49.556;10.956;2022-12-07T06:13:26;14.00;;;8.38;;
20154;SDS011;10238;49.556;10.956;2022-12-07T06:16:13;15.85;;;8.60;;
20154;SDS011;10238;49.556;10.956;2022-12-07T06:19:01;14.32;;;8.35;;
20154;SDS011;10238;49.556;10.956;2022-12-07T06:21:50;15.30;;;7.70;;
20154;SDS011;10238;49.556;10.956;2022-12-07T06:24:38;13.35;;;7.32;;
20154;SDS011;10238;49.556;10.956;2022-12-07T06:27:26;13.90;;;8.00;;
20154;SDS011;10238;49.556;10.956;2022-12-07T06:30:16;16.35;;;9.18;;
20154;SDS011;10238;49.556;10.956;2022-12-07T06:33:04;14.70;;;8.20;;
20154;SDS011;10238;49.556;10.956;2022-12-07T06:35:52;14.80;;;8.30;;
20154;SDS011;10238;49.556;10.956;2022-12-07T06:38:44;16.35;;;9.52;;
20154;SDS011;10238;49.556;10.956;2022-12-07T06:41:32;14.68;;;7.90;;
20154;SDS011;10238;49.556;10.956;2022-12-07T06:44:21;17.80;;;8.43;;
20154;SDS011;10238;49.556;10.956;2022-12-07T06:47:11;14.77;;;8.27;;
20154;SDS011;10238;49.556;10.956;2022-12-07T06:50:19;13.18;;;7.75;;
20154;SDS011;10238;49.556;10.956;2022-12-07T06:53:07;14.25;;;8.85;;
20154;SDS011;10238;49.556;10.956;2022-12-07T06:55:55;14.13;;;8.32;;
20154;SDS011;10238;49.556;10.956;2022-12-07T06:58:43;12.70;;;7.68;;
20154;SDS011;10238;49.556;10.956;2022-12-07T07:01:33;12.65;;;7.68;;
20154;SDS011;10238;49.556;10.956;2022-12-07T07:04:26;13.77;;;7.70;;
20154;SDS011;10238;49.556;10.956;2022-12-07T07:07:14;12.82;;;7.50;;
20154;SDS011;10238;49.556;10.956;2022-12-07T07:10:03;21.55;;;10.07;;
20154;SDS011;10238;49.556;10.956;2022-12-07T07:12:52;11.10;;;7.53;;
20154;SDS011;10238;49.556;10.956;2022-12-07T07:15:42;19.17;;;8.57;;
20154;SDS011;10238;49.556;10.956;2022-12-07T07:18:30;14.05;;;8.30;;
20154;SDS011;10238;49.556;10.956;2022-12-07T07:21:20;13.23;;;7.63;;
20154;SDS011;10238;49.556;10.956;2022-12-07T07:24:08;16.38;;;9.20;;
20154;SDS011;10238;49.556;10.956;2022-12-07T07:26:56;17.33;;;8.85;;
20154;SDS011;10238;49.556;10.956;2022-12-07T07:29:44;14.45;;;8.50;;
20154;SDS011;10238;49.556;10.956;2022-12-07T07:32:32;16.92;;;8.45;;
20154;SDS011;10238;49.556;10.956;2022-12-07T07:35:20;18.48;;;9.88;;
20154;SDS011;10238;49.556;10.956;2022-12-07T07:38:10;16.10;;;9.43;;
20154;SDS011;10238;49.556;10.956;2022-12-07T07:40:57;14.82;;;8.60;;
20154;SDS011;10238;49.556;10.956;2022-12-07T07:43:45;16.33;;;9.13;;
20154;SDS011;10238;49.556;10.956;2022-12-07T07:46:34;15.90;;;9.23;;
20154;SDS011;10238;49.556;10.956;2022-12-07T07:49:22;15.32;;;9.07;;
20154;SDS011;10238;49.556;10.956;2022-12-07T07:52:10;21.13;;;10.10;;
20154;SDS011;10238;49.556;10.956;2022-12-07T07:54:59;16.50;;;9.43;;
20154;SDS011;10238;49.556;10.956;2022-12-07T07:57:47;17.77;;;9.88;;
20154;SDS011;10238;49.556;10.956;2022-12-07T08:00:39;20.27;;;10.90;;
20154;SDS011;10238;49.556;10.956;2022-12-07T08:03:28;19.33;;;10.18;;
20154;SDS011;10238;49.556;10.956;2022-12-07T08:06:32;19.67;;;10.35;;
20154;SDS011;10238;49.556;10.956;2022-12-07T08:09:20;18.85;;;10.27;;
20154;SDS011;10238;49.556;10.956;2022-12-07T08:12:10;19.25;;;10.30;;
20154;SDS011;10238;49.556;10.956;2022-12-07T08:15:00;19.85;;;10.00;;
20154;SDS011;10238;49.556;10.956;2022-12-07T08:17:50;19.92;;;9.90;;
20154;SDS011;10238;49.556;10.956;2022-12-07T08:20:38;18.75;;;9.73;;
20154;SDS011;10238;49.556;10.956;2022-12-07T08:23:27;19.50;;;9.55;;
20154;SDS011;10238;49.556;10.956;2022-12-07T08:26:24;16.30;;;9.95;;
20154;SDS011;10238;49.556;10.956;2022-12-07T08:29:13;17.55;;;9.50;;
20154;SDS011;10238;49.556;10.956;2022-12-07T08:32:01;15.98;;;8.85;;
20154;SDS011;10238;49.556;10.956;2022-12-07T08:34:54;14.65;;;8.65;;
20154;SDS011;10238;49.556;10.956;2022-12-07T08:37:42;14.23;;;8.80;;
20154;SDS011;10238;49.556;10.956;2022-12-07T08:40:30;14.07;;;8.68;;
20154;SDS011;10238;49.556;10.956;2022-12-07T08:43:18;14.48;;;8.35;;
20154;SDS011;10238;49.556;10.956;2022-12-07T08:46:09;14.88;;;8.00;;
20154;SDS011;10238;49.556;10.956;2022-12-07T08:49:03;15.70;;;7.80;;
20154;SDS011;10238;49.556;10.956;2022-12-07T08:51:54;14.45;;;7.55;;
20154;SDS011;10238;49.556;10.956;2022-12-07T08:54:43;14.60;;;8.00;;
20154;SDS011;10238;49.556;10.956;2022-12-07T08:57:32;13.05;;;7.82;;
20154;SDS011;10238;49.556;10.956;2022-12-07T09:00:21;12.45;;;7.85;;
20154;SDS011;10238;49.556;10.956;2022-12-07T09:03:11;14.68;;;7.97;;
20154;SDS011;10238;49.556;10.956;2022-12-07T09:06:01;13.75;;;7.68;;
20154;SDS011;10238;49.556;10.956;2022-12-07T09:08:51;11.88;;;7.43;;
20154;SDS011;10238;49.556;10.956;2022-12-07T09:11:44;14.77;;;7.65;;
20154;SDS011;10238;49.556;10.956;2022-12-07T09:14:34;12.10;;;7.55;;
20154;SDS011;10238;49.556;10.956;2022-12-07T09:17:22;14.57;;;8.40;;
20154;SDS011;10238;49.556;10.956;2022-12-07T09:20:12;12.25;;;6.90;;
20154;SDS011;10238;49.556;10.956;2022-12-07T09:23:00;11.38;;;6.85;;
20154;SDS011;10238;49.556;10.956;2022-12-07T09:25:48;11.82;;;7.97;;
20154;SDS011;10238;49.556;10.956;2022-12-07T09:28:37;11.75;;;7.45;;
20154;SDS011;10238;49.556;10.956;2022-12-07T09:31:25;12.40;;;7.15;;
20154;SDS011;10238;49.556;10.956;2022-12-07T09:34:13;12.65;;;6.95;;
20154;SDS011;10238;49.556;10.956;2022-12-07T09:37:03;11.07;;;6.68;;
20154;SDS011;10238;49.556;10.956;2022-12-07T09:39:51;12.07;;;7.20;;
20154;SDS011;10238;49.556;10.956;2022-12-07T09:42:41;13.10;;;7.20;;
20154;SDS011;10238;49.556;10.956;2022-12-07T09:45:36;14.65;;;8.40;;
20154;SDS011;10238;49.556;10.956;2022-12-07T09:48:32;14.82;;;7.53;;
20154;SDS011;10238;49.556;10.956;2022-12-07T09:51:22;12.38;;;6.93;;
20154;SDS011;10238;49.556;10.956;2022-12-07T09:54:13;12.73;;;7.70;;
20154;SDS011;10238;49.556;10.956;2022-12-07T09:57:02;13.55;;;8.23;;
20154;SDS011;10238;49.556;10.956;2022-12-07T09:59:50;12.13;;;7.72;;
20154;SDS011;10238;49.556;10.956;2022-12-07T10:02:39;13.73;;;7.50;;
20154;SDS011;10238;49.556;10.956;2022-12-07T10:05:28;16.17;;;8.30;;
20154;SDS011;10238;49.556;10.956;2022-12-07T10:08:19;13.38;;;7.68;;
20154;SDS011;10238;49.556;10.956;2022-12-07T10:11:08;12.60;;;7.15;;
20154;SDS011;10238;49.556;10.956;2022-12-07T10:14:09;12.75;;;7.35;;
20154;SDS011;10238;49.556;10.956;2022-12-07T10:16:59;16.30;;;8.18;;
20154;SDS011;10238;49.556;10.956;2022-12-07T10:19:48;14.73;;;7.68;;
20154;SDS011;10238;49.556;10.956;2022-12-07T10:22:36;13.52;;;7.82;;
20154;SDS011;10238;49.556;10.956;2022-12-07T10:25:27;14.18;;;8.27;;
20154;SDS011;10238;49.556;10.956;2022-12-07T10:28:20;12.35;;;7.65;;
20154;SDS011;10238;49.556;10.956;2022-12-07T10:31:15;13.80;;;8.15;;
20154;SDS011;10238;49.556;10.956;2022-12-07T10:34:12;15.02;;;7.88;;
20154;SDS011;10238;49.556;10.956;2022-12-07T10:37:15;12.52;;;7.55;;
20154;SDS011;10238;49.556;10.956;2022-12-07T10:40:18;12.38;;;7.38;;
20154;SDS011;10238;49.556;10.956;2022-12-07T10:43:17;12.43;;;8.00;;
20154;SDS011;10238;49.556;10.956;2022-12-07T10:46:10;12.77;;;7.60;;
20154;SDS011;10238;49.556;10.956;2022-12-07T10:52:45;10.82;;;6.72;;
20154;SDS011;10238;49.556;10.956;2022-12-07T10:55:55;11.80;;;7.47;;
20154;SDS011;10238;49.556;10.956;2022-12-07T10:58:58;12.15;;;7.38;;
20154;SDS011;10238;49.556;10.956;2022-12-07T11:02:01;13.85;;;8.25;;
20154;SDS011;10238;49.556;10.956;2022-12-07T11:05:11;11.95;;;7.40;;
20154;SDS011;10238;49.556;10.956;2022-12-07T11:08:18;10.65;;;7.32;;
20154;SDS011;10238;49.556;10.956;2022-12-07T11:11:16;14.13;;;7.78;;
20154;SDS011;10238;49.556;10.956;2022-12-07T11:14:16;13.63;;;8.25;;
20154;SDS011;10238;49.556;10.956;2022-12-07T11:17:13;13.40;;;8.10;;
20154;SDS011;10238;49.556;10.956;2022-12-07T11:20:13;13.85;;;8.68;;
20154;SDS011;10238;49.556;10.956;2022-12-07T11:23:16;13.05;;;8.35;;
20154;SDS011;10238;49.556;10.956;2022-12-07T11:26:13;15.43;;;8.10;;
20154;SDS011;10238;49.556;10.956;2022-12-07T11:29:13;13.65;;;8.70;;
20154;SDS011;10238;49.556;10.956;2022-12-07T11:32:19;12.20;;;7.60;;
20154;SDS011;10238;49.556;10.956;2022-12-07T11:35:18;11.30;;;7.63;;
20154;SDS011;10238;49.556;10.956;2022-12-07T11:38:17;11.77;;;7.30;;
20154;SDS011;10238;49.556;10.956;2022-12-07T11:41:14;11.38;;;7.47;;
20154;SDS011;10238;49.556;10.956;2022-12-07T11:44:07;11.57;;;7.53;;
20154;SDS011;10238;49.556;10.956;2022-12-07T11:47:13;12.70;;;8.40;;
20154;SDS011;10238;49.556;10.956;2022-12-07T11:50:11;14.43;;;8.00;;
20154;SDS011;10238;49.556;10.956;2022-12-07T11:53:14;12.02;;;7.85;;
20154;SDS011;10238;49.556;10.956;2022-12-07T11:56:08;12.02;;;7.88;;
20154;SDS011;10238;49.556;10.956;2022-12-07T11:58:59;14.27;;;7.60;;
20154;SDS011;10238;49.556;10.956;2022-12-07T12:01:56;15.93;;;8.82;;
20154;SDS011;10238;49.556;10.956;2022-12-07T12:04:51;11.55;;;7.68;;
20154;SDS011;10238;49.556;10.956;2022-12-07T12:07:45;12.00;;;8.02;;
20154;SDS011;10238;49.556;10.956;2022-12-07T12:11:00;11.75;;;7.35;;
20154;SDS011;10238;49.556;10.956;2022-12-07T12:14:04;13.88;;;7.80;;
20154;SDS011;10238;49.556;10.956;2022-12-07T12:20:58;10.77;;;7.70;;
20154;SDS011;10238;49.556;10.956;2022-12-07T12:23:51;11.93;;;7.10;;
20154;SDS011;10238;49.556;10.956;2022-12-07T12:26:48;12.45;;;7.43;;
20154;SDS011;10238;49.556;10.956;2022-12-07T12:29:39;11.15;;;7.82;;
20154;SDS011;10238;49.556;10.956;2022-12-07T12:32:32;11.90;;;7.72;;
20154;SDS011;10238;49.556;10.956;2022-12-07T12:35:29;11.15;;;6.53;;
20154;SDS011;10238;49.556;10.956;2022-12-07T12:38:33;12.27;;;7.40;;
20154;SDS011;10238;49.556;10.956;2022-12-07T12:45:04;9.75;;;6.90;;
20154;SDS011;10238;49.556;10.956;2022-12-07T12:51:35;9.15;;;6.20;;
20154;SDS011;10238;49.556;10.956;2022-12-07T12:54:27;11.18;;;6.80;;
20154;SDS011;10238;49.556;10.956;2022-12-07T12:57:18;10.95;;;7.32;;
20154;SDS011;10238;49.556;10.956;2022-12-07T13:00:16;9.90;;;6.85;;
20154;SDS011;10238;49.556;10.956;2022-12-07T13:03:16;11.63;;;6.63;;
20154;SDS011;10238;49.556;10.956;2022-12-07T13:06:17;10.00;;;6.38;;
20154;SDS011;10238;49.556;10.956;2022-12-07T13:09:15;9.52;;;7.00;;
20154;SDS011;10238;49.556;10.956;2022-12-07T13:12:13;11.68;;;7.00;;
20154;SDS011;10238;49.556;10.956;2022-12-07T13:15:02;10.57;;;6.85;;
20154;SDS011;10238;49.556;10.956;2022-12-07T13:24:28;10.45;;;6.68;;
20154;SDS011;10238;49.556;10.956;2022-12-07T13:27:20;10.15;;;6.40;;
20154;SDS011;10238;49.556;10.956;2022-12-07T13:30:12;9.98;;;5.78;;
20154;SDS011;10238;49.556;10.956;2022-12-07T13:33:03;9.07;;;6.80;;
20154;SDS011;10238;49.556;10.956;2022-12-07T13:35:53;8.35;;;5.88;;
20154;SDS011;10238;49.556;10.956;2022-12-07T13:38:47;11.07;;;6.93;;
20154;SDS011;10238;49.556;10.956;2022-12-07T13:41:41;12.95;;;7.75;;
20154;SDS011;10238;49.556;10.956;2022-12-07T13:44:34;11.20;;;6.97;;
20154;SDS011;10238;49.556;10.956;2022-12-07T13:47:28;17.15;;;9.77;;
20154;SDS011;10238;49.556;10.956;2022-12-07T13:50:23;19.15;;;10.13;;
20154;SDS011;10238;49.556;10.956;2022-12-07T13:53:13;26.02;;;11.65;;
20154;SDS011;10238;49.556;10.956;2022-12-07T13:56:01;22.20;;;11.25;;
20154;SDS011;10238;49.556;10.956;2022-12-07T13:58:49;61.60;;;25.33;;
20154;SDS011;10238;49.556;10.956;2022-12-07T14:01:39;49.17;;;20.77;;
20154;SDS011;10238;49.556;10.956;2022-12-07T14:04:34;30.63;;;14.48;;
20154;SDS011;10238;49.556;10.956;2022-12-07T14:07:23;27.73;;;13.75;;
20154;SDS011;10238;49.556;10.956;2022-12-07T14:10:22;26.08;;;12.80;;
20154;SDS011;10238;49.556;10.956;2022-12-07T14:13:23;25.85;;;13.00;;
20154;SDS011;10238;49.556;10.956;2022-12-07T14:16:19;24.08;;;11.80;;
20154;SDS011;10238;49.556;10.956;2022-12-07T14:22:35;21.60;;;11.63;;
20154;SDS011;10238;49.556;10.956;2022-12-07T14:25:25;16.13;;;9.63;;
20154;SDS011;10238;49.556;10.956;2022-12-07T14:28:24;23.77;;;10.98;;
20154;SDS011;10238;49.556;10.956;2022-12-07T14:31:14;15.30;;;7.80;;
20154;SDS011;10238;49.556;10.956;2022-12-07T14:34:14;18.15;;;10.38;;
20154;SDS011;10238;49.556;10.956;2022-12-07T14:37:03;15.90;;;9.27;;
20154;SDS011;10238;49.556;10.956;2022-12-07T14:39:54;14.80;;;7.50;;
20154;SDS011;10238;49.556;10.956;2022-12-07T14:42:43;14.85;;;8.15;;
20154;SDS011;10238;49.556;10.956;2022-12-07T14:45:32;13.65;;;7.80;;
20154;SDS011;10238;49.556;10.956;2022-12-07T14:48:20;13.63;;;7.28;;
20154;SDS011;10238;49.556;10.956;2022-12-07T14:51:28;11.57;;;7.63;;
20154;SDS011;10238;49.556;10.956;2022-12-07T14:54:38;10.43;;;6.45;;
20154;SDS011;10238;49.556;10.956;2022-12-07T14:57:28;9.25;;;6.43;;
20154;SDS011;10238;49.556;10.956;2022-12-07T15:00:16;9.63;;;6.38;;
20154;SDS011;10238;49.556;10.956;2022-12-07T15:03:05;12.82;;;7.55;;
20154;SDS011;10238;49.556;10.956;2022-12-07T15:05:53;11.32;;;6.50;;
20154;SDS011;10238;49.556;10.956;2022-12-07T15:08:41;12.05;;;6.43;;
20154;SDS011;10238;49.556;10.956;2022-12-07T15:11:31;10.25;;;6.55;;
20154;SDS011;10238;49.556;10.956;2022-12-07T15:14:19;13.07;;;7.22;;
20154;SDS011;10238;49.556;10.956;2022-12-07T15:17:07;9.05;;;6.35;;
20154;SDS011;10238;49.556;10.956;2022-12-07T15:20:14;12.00;;;7.05;;
20154;SDS011;10238;49.556;10.956;2022-12-07T15:23:03;9.35;;;5.93;;
20154;SDS011;10238;49.556;10.956;2022-12-07T15:25:51;10.18;;;6.88;;
20154;SDS011;10238;49.556;10.956;2022-12-07T15:28:41;18.52;;;9.63;;
20154;SDS011;10238;49.556;10.956;2022-12-07T15:31:29;11.25;;;6.88;;
20154;SDS011;10238;49.556;10.956;2022-12-07T15:34:36;88.03;;;29.92;;
20154;SDS011;10238;49.556;10.956;2022-12-07T15:37:26;25.63;;;11.70;;
20154;SDS011;10238;49.556;10.956;2022-12-07T15:40:14;23.98;;;11.35;;
20154;SDS011;10238;49.556;10.956;2022-12-07T15:43:02;23.20;;;10.98;;
20154;SDS011;10238;49.556;10.956;2022-12-07T15:46:12;20.38;;;10.63;;
20154;SDS011;10238;49.556;10.956;2022-12-07T15:49:00;21.42;;;10.60;;
20154;SDS011;10238;49.556;10.956;2022-12-07T15:51:48;19.20;;;10.57;;
20154;SDS011;10238;49.556;10.956;2022-12-07T15:54:36;16.10;;;9.52;;
20154;SDS011;10238;49.556;10.956;2022-12-07T15:57:24;19.48;;;9.55;;
20154;SDS011;10238;49.556;10.956;2022-12-07T16:00:13;17.02;;;9.23;;
20154;SDS011;10238;49.556;10.956;2022-12-07T16:03:03;21.25;;;11.07;;
20154;SDS011;10238;49.556;10.956;2022-12-07T16:05:51;16.90;;;9.32;;
20154;SDS011;10238;49.556;10.956;2022-12-07T16:08:41;16.45;;;10.68;;
20154;SDS011;10238;49.556;10.956;2022-12-07T16:11:31;17.23;;;9.48;;
20154;SDS011;10238;49.556;10.956;2022-12-07T16:14:19;17.98;;;9.60;;
20154;SDS011;10238;49.556;10.956;2022-12-07T16:17:08;15.85;;;9.00;;
20154;SDS011;10238;49.556;10.956;2022-12-07T16:19:58;17.55;;;10.30;;
20154;SDS011;10238;49.556;10.956;2022-12-07T16:23:01;14.25;;;8.55;;
20154;SDS011;10238;49.556;10.956;2022-12-07T16:25:49;16.85;;;9.60;;
20154;SDS011;10238;49.556;10.956;2022-12-07T16:28:37;15.15;;;9.13;;
20154;SDS011;10238;49.556;10.956;2022-12-07T16:31:26;18.20;;;9.68;;
20154;SDS011;10238;49.556;10.956;2022-12-07T16:34:14;16.48;;;10.05;;
20154;SDS011;10238;49.556;10.956;2022-12-07T16:37:04;14.77;;;8.82;;
20154;SDS011;10238;49.556;10.956;2022-12-07T16:39:51;16.35;;;9.30;;
20154;SDS011;10238;49.556;10.956;2022-12-07T16:42:42;14.85;;;8.57;;
20154;SDS011;10238;49.556;10.956;2022-12-07T16:45:30;14.82;;;9.18;;
20154;SDS011;10238;49.556;10.956;2022-12-07T16:48:18;14.77;;;8.93;;
20154;SDS011;10238;49.556;10.956;2022-12-07T16:51:07;14.23;;;8.85;;
20154;SDS011;10238;49.556;10.956;2022-12-07T16:53:58;15.88;;;8.98;;
20154;SDS011;10238;49.556;10.956;2022-12-07T16:56:46;16.05;;;8.82;;
20154;SDS011;10238;49.556;10.956;2022-12-07T16:59:34;14.77;;;8.65;;
20154;SDS011;10238;49.556;10.956;2022-12-07T17:02:22;14.93;;;8.73;;
20154;SDS011;10238;49.556;10.956;2022-12-07T17:05:10;12.77;;;8.57;;
20154;SDS011;10238;49.556;10.956;2022-12-07T17:07:58;14.80;;;8.25;;
20154;SDS011;10238;49.556;10.956;2022-12-07T17:10:49;14.35;;;8.75;;
20154;SDS011;10238;49.556;10.956;2022-12-07T17:13:39;15.45;;;8.73;;